Details From MUCC - Jardines Del Rey
To MUCU - Santiago De Cuba Antonio Maceo Intl
Flight Number -
Tags Decoded
Created
Modified
Stats Distance 210 nm / 389 km
Max Altitude 0 ft / 0 m
Waypoints 4
Social Downloads 2
Likes 0
Share VATSIM

Download

Looking for another format? Having issues loading an existing format? Contact us
Advertisement - Login to hide

Notes

Decoded

Route

MUCC UCM UBY MUCU

ID Type Via Altitude Latitude Longitude Leg Dist Tot Dist Heading (true) Name
O MUCC APT - 0 ft / 0 m 22.45654˚ -78.34238˚ - 0 nm - -
UCM VOR - 0 ft / 0 m 21.43744˚ -77.80084˚ 68 nm 68 nm 154° / 154° CAMAGUEY VOR-DME
UBY NDB - 0 ft / 0 m 20.39389˚ -76.61917˚ 91 nm 159 nm 133° / 134° BAYAMO NDB
O MUCU APT - 0 ft / 0 m 19.98075˚ -75.83554˚ 50 nm 210 nm 119° / 119° -

Altitude Profile

Advertisement - Login to hide

Weather


0- 5 10 15 20 25 30 35+ Temperature / ° C

Clouds and Precipitation
Forecast for 2018-05-26 00:00 UTC. Updated 5 hours ago

Ground ~20,000 ft ~40,000 ft Winds

MUCC

Details ICAO MUCC
Name JARDINES DEL REY
Region Cuba
Timezone America/Havana (UTC-4.0)
Stats Elevation 13 ft / 4 m (AMSL)
Location 22.460945° -78.328602°
Runways 1
Magnetic Variation 7.362° W

METAR

MUCC 260350Z 10002KT 9000 FEW020 OVC080 24/23 Q1014

Decode

TAF

TAF AMD MUCC 260257Z 2603/2624 VRB03KT 9000 SCT020 BKN080 BECMG 2616/2618 12008KT TEMPO 2619/2624 VRB10KT 3000 TSRA RA SCT015CB BKN040

Decode

Departure Runways

ID Width Length Bearing (true) Bearing (mag) Surface Threshold Offset Overrun Length
08 148 ft / 45 m 9,835 ft / 2,998 m 70.91° 78.27° Asphalt 0 ft / 0 m 0 ft / 0 m
26 148 ft / 45 m 9,835 ft / 2,998 m 250.92° 258.28° Asphalt 0 ft / 0 m 0 ft / 0 m

MUCU

Details ICAO MUCU (SCU)
Name Santiago de Cuba Antonio Maceo Intl
Region Cuba
Timezone America/Havana (UTC-4.0)
Stats Elevation 249 ft / 76 m (AMSL)
Location 19.972337° -75.835517°
Runways 2
Magnetic Variation 8.446° W

METAR

MUCU 260351Z 02004KT 9000 SCT020 24/20 Q1014

Decode

TAF

Not found

Destination Runways

ID Width Length Bearing (true) Bearing (mag) Surface Threshold Offset Overrun Length
09 148 ft / 45 m 13,107 ft / 3,995 m 89.29° 97.74° Asphalt 985 ft / 300 m 0 ft / 0 m
18 148 ft / 45 m 4,272 ft / 1,302 m 179.40° 187.85° Asphalt 0 ft / 0 m 0 ft / 0 m
27 148 ft / 45 m 13,107 ft / 3,995 m 269.30° 277.75° Asphalt 980 ft / 299 m 340 ft / 104 m
36 148 ft / 45 m 4,272 ft / 1,302 m 359.40° 7.85° Asphalt 0 ft / 0 m 0 ft / 0 m

Approach Navaids

Runway Type Ident Frequency Range Bearing (true) Bearing (mag) Slope Elevation
09 Localiser ICU 110.70 MHz 18 nm / 33 km 85.21° 93.66° - 249 ft / 76 m (AMSL)
09 Glidescope ICU 110.70 MHz 10 nm / 19 km 89.30° 97.74° 3.00° 249 ft / 76 m (AMSL)

Popular Alternatives